sensor_id;sensor_type;location;lat;lon;timestamp;pressure;altitude;pressure_sealevel;temperature;humidity
34742;BME280;20968;42.696;23.360;2022-09-09T00:09:55;95440.84;;;23.10;53.81
34742;BME280;20968;42.696;23.360;2022-09-09T00:15:02;95446.97;;;23.37;52.37
34742;BME280;20968;42.696;23.360;2022-09-09T00:28:27;95425.94;;;22.95;53.17
34742;BME280;20968;42.696;23.360;2022-09-09T00:31:31;95426.72;;;22.75;53.91
34742;BME280;20968;42.696;23.360;2022-09-09T01:10:26;95407.69;;;21.72;58.99
34742;BME280;20968;42.696;23.360;2022-09-09T01:13:49;95409.94;;;21.73;58.88
34742;BME280;20968;42.696;23.360;2022-09-09T01:17:30;95420.00;;;21.69;59.07
34742;BME280;20968;42.696;23.360;2022-09-09T01:36:02;95415.91;;;21.70;59.03
34742;BME280;20968;42.696;23.360;2022-09-09T03:02:02;95432.06;;;20.66;61.53
34742;BME280;20968;42.696;23.360;2022-09-09T04:08:09;95451.25;;;20.49;62.31
34742;BME280;20968;42.696;23.360;2022-09-09T04:10:41;95457.03;;;20.51;62.70
34742;BME280;20968;42.696;23.360;2022-09-09T04:13:07;95443.28;;;20.53;62.08
34742;BME280;20968;42.696;23.360;2022-09-09T04:15:35;95444.03;;;20.53;62.08
34742;BME280;20968;42.696;23.360;2022-09-09T04:18:09;95442.84;;;20.49;62.02
34742;BME280;20968;42.696;23.360;2022-09-09T04:21:15;95438.09;;;20.44;62.49
34742;BME280;20968;42.696;23.360;2022-09-09T04:23:48;95432.38;;;20.36;62.77
34742;BME280;20968;42.696;23.360;2022-09-09T04:26:14;95441.94;;;20.28;62.61
34742;BME280;20968;42.696;23.360;2022-09-09T04:28:40;95434.19;;;20.21;61.86
34742;BME280;20968;42.696;23.360;2022-09-09T04:31:15;95439.88;;;20.16;61.67
34742;BME280;20968;42.696;23.360;2022-09-09T04:33:44;95444.06;;;20.09;61.66
34742;BME280;20968;42.696;23.360;2022-09-09T04:36:12;95448.94;;;20.22;61.81
34742;BME280;20968;42.696;23.360;2022-09-09T04:39:18;95440.44;;;20.27;61.94
34742;BME280;20968;42.696;23.360;2022-09-09T04:55:03;95439.44;;;20.25;63.31
34742;BME280;20968;42.696;23.360;2022-09-09T04:57:38;95439.28;;;20.48;62.96
34742;BME280;20968;42.696;23.360;2022-09-09T05:09:08;95436.69;;;21.28;59.87
34742;BME280;20968;42.696;23.360;2022-09-09T05:43:48;95435.34;;;22.70;55.02
34742;BME280;20968;42.696;23.360;2022-09-09T05:49:14;95427.72;;;22.77;54.68
34742;BME280;20968;42.696;23.360;2022-09-09T05:58:00;95429.97;;;23.07;53.47
34742;BME280;20968;42.696;23.360;2022-09-09T06:00:38;95434.69;;;23.12;53.22
34742;BME280;20968;42.696;23.360;2022-09-09T06:03:10;95436.00;;;23.18;53.33
34742;BME280;20968;42.696;23.360;2022-09-09T06:12:19;95447.59;;;23.50;52.17
34742;BME280;20968;42.696;23.360;2022-09-09T06:14:45;95445.00;;;23.52;51.42
34742;BME280;20968;42.696;23.360;2022-09-09T06:17:14;95451.00;;;23.56;50.28
34742;BME280;20968;42.696;23.360;2022-09-09T06:19:42;95441.81;;;23.63;51.25
34742;BME280;20968;42.696;23.360;2022-09-09T06:22:13;95452.16;;;23.68;51.38
34742;BME280;20968;42.696;23.360;2022-09-09T06:24:49;95444.94;;;23.87;51.34
34742;BME280;20968;42.696;23.360;2022-09-09T06:27:17;95451.34;;;24.03;50.81
34742;BME280;20968;42.696;23.360;2022-09-09T06:35:36;95445.69;;;23.80;51.33
34742;BME280;20968;42.696;23.360;2022-09-09T06:38:02;95445.56;;;23.58;50.20
34742;BME280;20968;42.696;23.360;2022-09-09T06:40:28;95430.28;;;23.74;51.84
34742;BME280;20968;42.696;23.360;2022-09-09T06:43:09;95434.25;;;23.93;51.64
34742;BME280;20968;42.696;23.360;2022-09-09T06:45:42;95443.84;;;23.98;50.83
34742;BME280;20968;42.696;23.360;2022-09-09T06:48:07;95431.06;;;23.97;50.64
34742;BME280;20968;42.696;23.360;2022-09-09T06:50:34;95422.28;;;24.15;50.55
34742;BME280;20968;42.696;23.360;2022-09-09T06:52:59;95443.31;;;24.29;50.04
34742;BME280;20968;42.696;23.360;2022-09-09T06:55:25;95447.09;;;24.39;49.71
34742;BME280;20968;42.696;23.360;2022-09-09T06:57:50;95449.38;;;24.48;49.90
34742;BME280;20968;42.696;23.360;2022-09-09T07:00:16;95450.09;;;24.63;49.45
34742;BME280;20968;42.696;23.360;2022-09-09T07:02:42;95457.97;;;24.80;48.25
34742;BME280;20968;42.696;23.360;2022-09-09T07:05:17;95467.00;;;24.78;48.56
34742;BME280;20968;42.696;23.360;2022-09-09T07:07:50;95454.22;;;24.85;48.14
34742;BME280;20968;42.696;23.360;2022-09-09T07:10:17;95449.50;;;24.95;48.13
34742;BME280;20968;42.696;23.360;2022-09-09T07:12:44;95457.41;;;25.11;48.44
34742;BME280;20968;42.696;23.360;2022-09-09T07:15:09;95445.56;;;25.13;48.33
34742;BME280;20968;42.696;23.360;2022-09-09T07:17:35;95438.75;;;25.08;48.13
34742;BME280;20968;42.696;23.360;2022-09-09T07:20:01;95449.31;;;25.15;47.05
34742;BME280;20968;42.696;23.360;2022-09-09T07:22:28;95444.25;;;25.21;47.77
34742;BME280;20968;42.696;23.360;2022-09-09T07:24:53;95436.69;;;25.23;48.15
34742;BME280;20968;42.696;23.360;2022-09-09T07:27:22;95444.16;;;25.43;47.55
34742;BME280;20968;42.696;23.360;2022-09-09T07:29:47;95443.56;;;25.52;46.95
34742;BME280;20968;42.696;23.360;2022-09-09T07:32:13;95441.72;;;25.40;46.29
34742;BME280;20968;42.696;23.360;2022-09-09T07:34:38;95445.41;;;25.57;46.88
34742;BME280;20968;42.696;23.360;2022-09-09T07:37:04;95438.97;;;25.64;44.54
34742;BME280;20968;42.696;23.360;2022-09-09T07:39:30;95432.94;;;25.68;45.22
34742;BME280;20968;42.696;23.360;2022-09-09T07:42:14;95432.91;;;25.83;46.76
34742;BME280;20968;42.696;23.360;2022-09-09T07:55:05;95441.78;;;26.35;44.75
34742;BME280;20968;42.696;23.360;2022-09-09T07:57:39;95441.94;;;26.45;45.07
34742;BME280;20968;42.696;23.360;2022-09-09T08:00:05;95443.75;;;26.74;44.59
34742;BME280;20968;42.696;23.360;2022-09-09T08:02:31;95439.31;;;26.88;45.49
34742;BME280;20968;42.696;23.360;2022-09-09T08:04:56;95433.63;;;27.12;42.56
34742;BME280;20968;42.696;23.360;2022-09-09T08:07:42;95436.22;;;27.01;44.68
34742;BME280;20968;42.696;23.360;2022-09-09T08:10:19;95437.44;;;27.07;43.57
34742;BME280;20968;42.696;23.360;2022-09-09T08:12:53;95436.63;;;27.14;42.49
34742;BME280;20968;42.696;23.360;2022-09-09T08:15:22;95429.91;;;27.10;42.55
34742;BME280;20968;42.696;23.360;2022-09-09T08:17:53;95431.06;;;27.24;42.20
34742;BME280;20968;42.696;23.360;2022-09-09T08:20:29;95434.72;;;27.34;44.26
34742;BME280;20968;42.696;23.360;2022-09-09T08:23:04;95422.72;;;27.43;42.97
34742;BME280;20968;42.696;23.360;2022-09-09T08:25:30;95431.19;;;27.59;43.86
34742;BME280;20968;42.696;23.360;2022-09-09T08:28:07;95431.72;;;27.65;43.28
34742;BME280;20968;42.696;23.360;2022-09-09T08:30:43;95425.16;;;27.63;43.17
34742;BME280;20968;42.696;23.360;2022-09-09T08:33:30;95419.34;;;27.87;42.80
34742;BME280;20968;42.696;23.360;2022-09-09T08:36:06;95426.47;;;28.05;41.65
34742;BME280;20968;42.696;23.360;2022-09-09T08:39:00;95422.34;;;27.89;41.40
34742;BME280;20968;42.696;23.360;2022-09-09T08:58:23;95421.81;;;27.74;44.54
34742;BME280;20968;42.696;23.360;2022-09-09T09:12:01;95410.06;;;28.04;43.06
34742;BME280;20968;42.696;23.360;2022-09-09T09:14:35;95421.72;;;28.34;42.57
34742;BME280;20968;42.696;23.360;2022-09-09T09:17:18;95417.97;;;28.67;41.04
34742;BME280;20968;42.696;23.360;2022-09-09T09:19:46;95417.00;;;28.82;40.73
34742;BME280;20968;42.696;23.360;2022-09-09T09:25:19;95410.50;;;28.72;40.40
34742;BME280;20968;42.696;23.360;2022-09-09T09:31:07;95404.22;;;28.02;42.47
34742;BME280;20968;42.696;23.360;2022-09-09T09:33:57;95415.34;;;27.90;43.01
34742;BME280;20968;42.696;23.360;2022-09-09T09:36:40;95415.03;;;27.86;43.17
34742;BME280;20968;42.696;23.360;2022-09-09T09:39:27;95407.47;;;27.72;43.76
34742;BME280;20968;42.696;23.360;2022-09-09T09:41:53;95410.47;;;27.74;43.32
34742;BME280;20968;42.696;23.360;2022-09-09T09:44:32;95398.31;;;27.81;43.07
34742;BME280;20968;42.696;23.360;2022-09-09T09:49:36;95390.19;;;27.94;44.01
34742;BME280;20968;42.696;23.360;2022-09-09T09:52:06;95388.34;;;27.89;44.67
34742;BME280;20968;42.696;23.360;2022-09-09T09:58:03;95388.34;;;27.89;42.98
34742;BME280;20968;42.696;23.360;2022-09-09T10:00:29;95383.25;;;27.78;43.53
34742;BME280;20968;42.696;23.360;2022-09-09T10:06:08;95381.19;;;27.88;44.25
34742;BME280;20968;42.696;23.360;2022-09-09T10:19:07;95396.81;;;27.80;44.99
34742;BME280;20968;42.696;23.360;2022-09-09T10:22:04;95395.00;;;27.75;44.44
34742;BME280;20968;42.696;23.360;2022-09-09T10:24:54;95399.41;;;27.68;44.13
34742;BME280;20968;42.696;23.360;2022-09-09T10:30:24;95398.09;;;27.36;45.01
34742;BME280;20968;42.696;23.360;2022-09-09T10:33:04;95396.75;;;27.20;46.51
34742;BME280;20968;42.696;23.360;2022-09-09T10:42:16;95396.59;;;27.01;45.88
34742;BME280;20968;42.696;23.360;2022-09-09T10:56:23;95410.19;;;26.78;46.46
34742;BME280;20968;42.696;23.360;2022-09-09T11:01:49;95402.84;;;26.75;47.17
34742;BME280;20968;42.696;23.360;2022-09-09T11:04:35;95399.84;;;26.73;47.15
34742;BME280;20968;42.696;23.360;2022-09-09T11:07:11;95393.09;;;26.52;47.37
34742;BME280;20968;42.696;23.360;2022-09-09T11:09:42;95399.06;;;26.56;47.34
34742;BME280;20968;42.696;23.360;2022-09-09T11:12:17;95392.78;;;26.65;47.15
34742;BME280;20968;42.696;23.360;2022-09-09T11:15:06;95395.34;;;26.53;47.73
34742;BME280;20968;42.696;23.360;2022-09-09T11:17:50;95389.69;;;26.53;47.82
34742;BME280;20968;42.696;23.360;2022-09-09T11:20:17;95397.03;;;26.73;46.52
34742;BME280;20968;42.696;23.360;2022-09-09T11:22:52;95384.06;;;26.70;46.90
34742;BME280;20968;42.696;23.360;2022-09-09T11:25:28;95377.75;;;26.79;47.23
34742;BME280;20968;42.696;23.360;2022-09-09T11:31:10;95373.28;;;26.93;46.98
34742;BME280;20968;42.696;23.360;2022-09-09T11:42:16;95348.31;;;26.99;48.01
34742;BME280;20968;42.696;23.360;2022-09-09T11:44:45;95331.88;;;27.05;46.93
34742;BME280;20968;42.696;23.360;2022-09-09T11:47:30;95335.22;;;27.11;46.02
34742;BME280;20968;42.696;23.360;2022-09-09T11:52:42;95323.78;;;27.35;46.84
34742;BME280;20968;42.696;23.360;2022-09-09T11:55:28;95304.28;;;27.39;46.90
34742;BME280;20968;42.696;23.360;2022-09-09T11:58:21;95292.81;;;27.37;47.26
34742;BME280;20968;42.696;23.360;2022-09-09T12:00:49;95318.06;;;27.26;46.71
34742;BME280;20968;42.696;23.360;2022-09-09T12:05:59;95324.41;;;27.86;46.25
34742;BME280;20968;42.696;23.360;2022-09-09T12:08:28;95326.88;;;28.09;45.45
34742;BME280;20968;42.696;23.360;2022-09-09T12:10:56;95325.97;;;28.42;46.51
34742;BME280;20968;42.696;23.360;2022-09-09T12:13:24;95317.81;;;28.74;45.53
34742;BME280;20968;42.696;23.360;2022-09-09T12:19:21;95293.69;;;29.11;43.35
34742;BME280;20968;42.696;23.360;2022-09-09T12:22:12;95301.00;;;29.14;45.41
34742;BME280;20968;42.696;23.360;2022-09-09T12:38:15;95277.59;;;29.72;42.39
34742;BME280;20968;42.696;23.360;2022-09-09T12:40:54;95287.84;;;29.47;43.50
34742;BME280;20968;42.696;23.360;2022-09-09T12:43:22;95281.88;;;28.96;44.18
34742;BME280;20968;42.696;23.360;2022-09-09T12:45:49;95267.66;;;28.67;46.03
34742;BME280;20968;42.696;23.360;2022-09-09T12:48:27;95272.16;;;28.80;45.67
34742;BME280;20968;42.696;23.360;2022-09-09T12:51:03;95270.69;;;28.88;45.80
34742;BME280;20968;42.696;23.360;2022-09-09T12:53:35;95264.97;;;28.69;45.86
34742;BME280;20968;42.696;23.360;2022-09-09T12:56:06;95265.16;;;28.81;45.29
34742;BME280;20968;42.696;23.360;2022-09-09T12:58:38;95258.13;;;28.72;45.87
34742;BME280;20968;42.696;23.360;2022-09-09T13:01:06;95265.00;;;29.07;45.32
34742;BME280;20968;42.696;23.360;2022-09-09T13:03:33;95266.19;;;29.42;45.33
34742;BME280;20968;42.696;23.360;2022-09-09T13:06:12;95260.13;;;29.66;44.73
34742;BME280;20968;42.696;23.360;2022-09-09T13:08:39;95252.69;;;29.61;42.70
34742;BME280;20968;42.696;23.360;2022-09-09T13:11:13;95254.63;;;29.49;42.79
34742;BME280;20968;42.696;23.360;2022-09-09T13:13:43;95254.53;;;29.38;44.41
34742;BME280;20968;42.696;23.360;2022-09-09T13:16:34;95241.25;;;29.12;44.67
34742;BME280;20968;42.696;23.360;2022-09-09T13:19:14;95251.09;;;29.20;45.36
34742;BME280;20968;42.696;23.360;2022-09-09T13:21:41;95252.28;;;29.27;45.90
34742;BME280;20968;42.696;23.360;2022-09-09T13:27:04;95241.25;;;28.93;44.43
34742;BME280;20968;42.696;23.360;2022-09-09T13:29:51;95233.34;;;28.82;45.01
34742;BME280;20968;42.696;23.360;2022-09-09T13:32:24;95230.66;;;28.75;46.56
34742;BME280;20968;42.696;23.360;2022-09-09T13:34:59;95229.63;;;28.80;46.50
34742;BME280;20968;42.696;23.360;2022-09-09T13:39:59;95216.16;;;28.42;47.09
34742;BME280;20968;42.696;23.360;2022-09-09T13:42:27;95230.91;;;28.41;47.24
34742;BME280;20968;42.696;23.360;2022-09-09T13:54:15;95196.41;;;28.16;48.11
34742;BME280;20968;42.696;23.360;2022-09-09T14:00:03;95207.03;;;28.63;47.73
34742;BME280;20968;42.696;23.360;2022-09-09T14:02:29;95201.84;;;28.50;46.53
34742;BME280;20968;42.696;23.360;2022-09-09T14:04:56;95201.38;;;28.44;47.15
34742;BME280;20968;42.696;23.360;2022-09-09T14:07:21;95209.28;;;28.74;46.07
34742;BME280;20968;42.696;23.360;2022-09-09T14:09:47;95203.00;;;28.75;46.23
34742;BME280;20968;42.696;23.360;2022-09-09T14:12:15;95214.38;;;29.04;45.94
34742;BME280;20968;42.696;23.360;2022-09-09T14:14:41;95202.44;;;28.96;45.88
34742;BME280;20968;42.696;23.360;2022-09-09T14:17:08;95198.22;;;29.16;46.21
34742;BME280;20968;42.696;23.360;2022-09-09T14:19:34;95190.56;;;29.37;44.75
34742;BME280;20968;42.696;23.360;2022-09-09T14:21:59;95191.44;;;29.49;44.44
34742;BME280;20968;42.696;23.360;2022-09-09T14:24:26;95195.19;;;29.42;44.42
34742;BME280;20968;42.696;23.360;2022-09-09T14:26:52;95187.28;;;29.31;44.80
34742;BME280;20968;42.696;23.360;2022-09-09T14:29:17;95177.28;;;29.20;44.56
34742;BME280;20968;42.696;23.360;2022-09-09T14:31:43;95193.41;;;29.27;45.36
34742;BME280;20968;42.696;23.360;2022-09-09T14:34:08;95187.75;;;29.09;45.38
34742;BME280;20968;42.696;23.360;2022-09-09T14:36:36;95192.25;;;29.12;45.89
34742;BME280;20968;42.696;23.360;2022-09-09T14:39:02;95191.25;;;28.88;46.06
34742;BME280;20968;42.696;23.360;2022-09-09T14:41:29;95188.56;;;28.71;45.51
34742;BME280;20968;42.696;23.360;2022-09-09T14:43:55;95188.56;;;28.62;45.80
34742;BME280;20968;42.696;23.360;2022-09-09T14:46:20;95187.50;;;28.67;45.04
34742;BME280;20968;42.696;23.360;2022-09-09T14:48:46;95170.63;;;28.59;45.79
34742;BME280;20968;42.696;23.360;2022-09-09T14:51:20;95178.56;;;28.42;45.55
34742;BME280;20968;42.696;23.360;2022-09-09T14:53:47;95178.09;;;28.36;45.63
34742;BME280;20968;42.696;23.360;2022-09-09T14:56:16;95180.78;;;28.34;45.90
34742;BME280;20968;42.696;23.360;2022-09-09T14:58:42;95187.50;;;28.29;45.79
34742;BME280;20968;42.696;23.360;2022-09-09T15:01:13;95184.78;;;28.22;46.12
34742;BME280;20968;42.696;23.360;2022-09-09T15:03:40;95195.34;;;28.12;46.86
34742;BME280;20968;42.696;23.360;2022-09-09T15:06:11;95182.22;;;28.07;47.19
34742;BME280;20968;42.696;23.360;2022-09-09T15:08:39;95186.41;;;28.06;47.44
34742;BME280;20968;42.696;23.360;2022-09-09T15:11:06;95194.16;;;28.05;47.24
34742;BME280;20968;42.696;23.360;2022-09-09T15:13:36;95199.06;;;28.05;47.31
34742;BME280;20968;42.696;23.360;2022-09-09T15:16:10;95195.31;;;28.02;47.88
34742;BME280;20968;42.696;23.360;2022-09-09T15:18:35;95203.69;;;28.00;47.65
34742;BME280;20968;42.696;23.360;2022-09-09T15:21:03;95198.41;;;27.87;46.75
34742;BME280;20968;42.696;23.360;2022-09-09T15:23:34;95198.03;;;28.00;47.16
34742;BME280;20968;42.696;23.360;2022-09-09T15:26:00;95203.47;;;27.79;47.14
34742;BME280;20968;42.696;23.360;2022-09-09T15:28:26;95200.97;;;27.93;46.90
34742;BME280;20968;42.696;23.360;2022-09-09T15:30:52;95194.16;;;28.05;46.73
34742;BME280;20968;42.696;23.360;2022-09-09T15:33:20;95190.75;;;28.16;46.97
34742;BME280;20968;42.696;23.360;2022-09-09T15:35:46;95188.63;;;28.07;46.76
34742;BME280;20968;42.696;23.360;2022-09-09T15:38:12;95186.53;;;28.08;47.53
34742;BME280;20968;42.696;23.360;2022-09-09T15:40:39;95196.69;;;28.01;47.31
34742;BME280;20968;42.696;23.360;2022-09-09T15:43:06;95199.63;;;27.84;47.38
34742;BME280;20968;42.696;23.360;2022-09-09T15:45:32;95195.28;;;27.74;48.12
34742;BME280;20968;42.696;23.360;2022-09-09T15:47:59;95186.06;;;27.56;48.24
34742;BME280;20968;42.696;23.360;2022-09-09T15:50:25;95170.19;;;27.35;48.67
34742;BME280;20968;42.696;23.360;2022-09-09T15:52:51;95183.78;;;27.36;48.68
34742;BME280;20968;42.696;23.360;2022-09-09T15:55:21;95173.75;;;27.26;49.11
34742;BME280;20968;42.696;23.360;2022-09-09T15:57:46;95175.78;;;27.16;49.02
34742;BME280;20968;42.696;23.360;2022-09-09T16:00:12;95177.41;;;27.19;49.19
34742;BME280;20968;42.696;23.360;2022-09-09T16:02:39;95172.94;;;27.16;49.34
34742;BME280;20968;42.696;23.360;2022-09-09T16:05:05;95177.41;;;27.19;49.11
34742;BME280;20968;42.696;23.360;2022-09-09T16:07:31;95172.34;;;27.17;49.71
34742;BME280;20968;42.696;23.360;2022-09-09T16:09:56;95167.97;;;27.07;49.58
34742;BME280;20968;42.696;23.360;2022-09-09T16:12:22;95182.47;;;27.11;49.45
34742;BME280;20968;42.696;23.360;2022-09-09T16:14:47;95172.13;;;27.06;49.48
34742;BME280;20968;42.696;23.360;2022-09-09T16:17:13;95184.47;;;27.01;49.54
34742;BME280;20968;42.696;23.360;2022-09-09T16:19:39;95182.97;;;27.00;49.57
34742;BME280;20968;42.696;23.360;2022-09-09T16:22:05;95184.78;;;27.05;49.70
34742;BME280;20968;42.696;23.360;2022-09-09T16:24:32;95174.13;;;26.96;50.50
34742;BME280;20968;42.696;23.360;2022-09-09T16:26:57;95183.16;;;27.02;50.25
34742;BME280;20968;42.696;23.360;2022-09-09T16:29:23;95174.56;;;26.92;50.52
34742;BME280;20968;42.696;23.360;2022-09-09T16:31:49;95179.16;;;26.88;50.80
34742;BME280;20968;42.696;23.360;2022-09-09T16:34:16;95172.44;;;26.83;51.45
34742;BME280;20968;42.696;23.360;2022-09-09T16:36:43;95171.84;;;26.85;51.56
34742;BME280;20968;42.696;23.360;2022-09-09T16:39:12;95174.28;;;26.72;51.87
34742;BME280;20968;42.696;23.360;2022-09-09T16:41:39;95170.38;;;26.67;51.75
34742;BME280;20968;42.696;23.360;2022-09-09T16:44:07;95184.38;;;26.65;52.44
34742;BME280;20968;42.696;23.360;2022-09-09T16:46:35;95188.94;;;26.61;52.62
34742;BME280;20968;42.696;23.360;2022-09-09T16:49:03;95189.19;;;26.55;52.87
34742;BME280;20968;42.696;23.360;2022-09-09T16:51:32;95175.47;;;26.52;52.83
34742;BME280;20968;42.696;23.360;2022-09-09T16:54:15;95183.53;;;26.55;53.21
34742;BME280;20968;42.696;23.360;2022-09-09T16:57:14;95165.44;;;26.41;53.47
34742;BME280;20968;42.696;23.360;2022-09-09T16:59:39;95172.72;;;26.44;53.18
34742;BME280;20968;42.696;23.360;2022-09-09T17:02:05;95159.03;;;26.41;53.53
34742;BME280;20968;42.696;23.360;2022-09-09T17:04:30;95162.50;;;26.32;53.57
34742;BME280;20968;42.696;23.360;2022-09-09T17:06:56;95183.94;;;26.35;53.89
34742;BME280;20968;42.696;23.360;2022-09-09T17:09:23;95180.63;;;26.29;54.10
34742;BME280;20968;42.696;23.360;2022-09-09T17:11:53;95187.00;;;26.29;54.58
34742;BME280;20968;42.696;23.360;2022-09-09T17:14:21;95193.56;;;25.98;55.67
34742;BME280;20968;42.696;23.360;2022-09-09T17:16:47;95186.72;;;26.01;55.10
34742;BME280;20968;42.696;23.360;2022-09-09T17:19:13;95189.22;;;25.97;55.22
34742;BME280;20968;42.696;23.360;2022-09-09T17:21:56;95192.22;;;25.99;55.37
34742;BME280;20968;42.696;23.360;2022-09-09T17:24:28;95193.78;;;25.93;55.35
34742;BME280;20968;42.696;23.360;2022-09-09T17:26:54;95193.47;;;25.89;55.80
34742;BME280;20968;42.696;23.360;2022-09-09T17:29:20;95184.97;;;25.47;57.45
34742;BME280;20968;42.696;23.360;2022-09-09T17:31:46;95190.41;;;25.45;57.65
34742;BME280;20968;42.696;23.360;2022-09-09T17:34:11;95199.41;;;25.51;57.26
34742;BME280;20968;42.696;23.360;2022-09-09T17:36:37;95203.31;;;25.56;57.91
34742;BME280;20968;42.696;23.360;2022-09-09T17:39:04;95209.53;;;25.54;57.06
34742;BME280;20968;42.696;23.360;2022-09-09T17:41:32;95202.81;;;25.50;57.73
34742;BME280;20968;42.696;23.360;2022-09-09T17:43:58;95202.44;;;25.46;57.88
34742;BME280;20968;42.696;23.360;2022-09-09T17:48:54;95216.72;;;25.48;57.41
34742;BME280;20968;42.696;23.360;2022-09-09T17:51:24;95224.03;;;25.26;58.17
34742;BME280;20968;42.696;23.360;2022-09-09T17:53:53;95241.00;;;25.19;57.95
34742;BME280;20968;42.696;23.360;2022-09-09T17:56:21;95232.00;;;25.13;58.15
34742;BME280;20968;42.696;23.360;2022-09-09T17:58:48;95240.69;;;25.00;58.87
34742;BME280;20968;42.696;23.360;2022-09-09T18:01:16;95246.16;;;24.98;59.30
34742;BME280;20968;42.696;23.360;2022-09-09T18:03:43;95245.28;;;24.88;59.20
34742;BME280;20968;42.696;23.360;2022-09-09T18:06:11;95254.53;;;24.74;59.41
34742;BME280;20968;42.696;23.360;2022-09-09T18:08:38;95255.28;;;24.74;59.80
34742;BME280;20968;42.696;23.360;2022-09-09T18:11:05;95244.91;;;24.84;59.28
34742;BME280;20968;42.696;23.360;2022-09-09T18:13:30;95256.16;;;24.92;59.47
34742;BME280;20968;42.696;23.360;2022-09-09T18:15:56;95253.13;;;24.97;59.05
34742;BME280;20968;42.696;23.360;2022-09-09T18:18:24;95257.78;;;25.10;58.62
34742;BME280;20968;42.696;23.360;2022-09-09T18:21:00;95269.19;;;25.19;58.90
34742;BME280;20968;42.696;23.360;2022-09-09T18:23:29;95257.13;;;25.26;58.34
34742;BME280;20968;42.696;23.360;2022-09-09T18:25:55;95266.91;;;25.25;57.98
34742;BME280;20968;42.696;23.360;2022-09-09T18:28:23;95264.25;;;25.27;58.77
34742;BME280;20968;42.696;23.360;2022-09-09T18:30:48;95261.59;;;25.29;57.91
34742;BME280;20968;42.696;23.360;2022-09-09T18:33:14;95260.88;;;25.28;57.90
34742;BME280;20968;42.696;23.360;2022-09-09T18:35:40;95275.56;;;25.27;57.03
34742;BME280;20968;42.696;23.360;2022-09-09T18:38:05;95270.06;;;25.29;57.61
34742;BME280;20968;42.696;23.360;2022-09-09T18:40:31;95284.09;;;25.44;56.96
34742;BME280;20968;42.696;23.360;2022-09-09T18:42:57;95275.47;;;25.42;57.11
34742;BME280;20968;42.696;23.360;2022-09-09T18:45:22;95274.28;;;25.45;55.73
34742;BME280;20968;42.696;23.360;2022-09-09T18:47:48;95275.56;;;25.51;55.75
34742;BME280;20968;42.696;23.360;2022-09-09T18:50:14;95285.31;;;25.58;55.88
34742;BME280;20968;42.696;23.360;2022-09-09T18:52:39;95281.97;;;25.52;56.08
34742;BME280;20968;42.696;23.360;2022-09-09T18:55:06;95286.06;;;25.58;55.90
34742;BME280;20968;42.696;23.360;2022-09-09T18:57:32;95282.09;;;25.61;54.96
34742;BME280;20968;42.696;23.360;2022-09-09T18:59:57;95287.28;;;25.72;55.46
34742;BME280;20968;42.696;23.360;2022-09-09T19:02:23;95271.91;;;25.66;54.91
34742;BME280;20968;42.696;23.360;2022-09-09T19:04:48;95273.97;;;25.65;54.48
34742;BME280;20968;42.696;23.360;2022-09-09T19:07:14;95269.41;;;25.70;55.05
34742;BME280;20968;42.696;23.360;2022-09-09T19:09:40;95277.13;;;25.77;54.30
34742;BME280;20968;42.696;23.360;2022-09-09T19:12:06;95263.97;;;25.72;54.94
34742;BME280;20968;42.696;23.360;2022-09-09T19:14:31;95272.22;;;25.77;54.40
34742;BME280;20968;42.696;23.360;2022-09-09T19:16:57;95264.31;;;25.76;54.56
34742;BME280;20968;42.696;23.360;2022-09-09T19:19:26;95260.38;;;25.71;54.09
34742;BME280;20968;42.696;23.360;2022-09-09T19:22:07;95249.75;;;25.62;53.80
34742;BME280;20968;42.696;23.360;2022-09-09T19:24:36;95250.91;;;25.52;53.65
34742;BME280;20968;42.696;23.360;2022-09-09T19:27:04;95260.84;;;25.60;54.25
34742;BME280;20968;42.696;23.360;2022-09-09T19:29:32;95257.53;;;25.47;53.96
34742;BME280;20968;42.696;23.360;2022-09-09T19:31:59;95251.38;;;25.41;55.27
34742;BME280;20968;42.696;23.360;2022-09-09T19:34:26;95252.53;;;25.38;55.25
34742;BME280;20968;42.696;23.360;2022-09-09T19:36:51;95251.00;;;25.44;55.12
34742;BME280;20968;42.696;23.360;2022-09-09T19:39:17;95246.84;;;25.45;54.58
34742;BME280;20968;42.696;23.360;2022-09-09T19:41:43;95254.91;;;25.49;54.06
34742;BME280;20968;42.696;23.360;2022-09-09T19:44:11;95232.78;;;25.38;55.08
34742;BME280;20968;42.696;23.360;2022-09-09T19:49:58;95234.78;;;25.45;54.70
34742;BME280;20968;42.696;23.360;2022-09-09T19:52:24;95235.19;;;25.41;54.63
34742;BME280;20968;42.696;23.360;2022-09-09T19:54:49;95240.09;;;25.41;54.37
34742;BME280;20968;42.696;23.360;2022-09-09T19:57:15;95232.44;;;25.34;54.07
34742;BME280;20968;42.696;23.360;2022-09-09T19:59:40;95219.59;;;25.40;53.49
34742;BME280;20968;42.696;23.360;2022-09-09T20:02:06;95226.19;;;25.43;53.60
34742;BME280;20968;42.696;23.360;2022-09-09T20:04:31;95229.81;;;25.36;54.98
34742;BME280;20968;42.696;23.360;2022-09-09T20:06:59;95217.94;;;25.37;54.69
34742;BME280;20968;42.696;23.360;2022-09-09T20:09:24;95224.56;;;25.32;54.71
34742;BME280;20968;42.696;23.360;2022-09-09T20:11:51;95204.41;;;25.36;54.09
34742;BME280;20968;42.696;23.360;2022-09-09T20:14:17;95211.72;;;25.39;53.90
34742;BME280;20968;42.696;23.360;2022-09-09T20:16:43;95209.06;;;25.41;54.19
34742;BME280;20968;42.696;23.360;2022-09-09T20:19:10;95212.00;;;25.50;53.50
34742;BME280;20968;42.696;23.360;2022-09-09T20:21:38;95207.16;;;25.43;53.64
34742;BME280;20968;42.696;23.360;2022-09-09T20:24:07;95204.94;;;25.42;54.26
34742;BME280;20968;42.696;23.360;2022-09-09T20:26:34;95204.41;;;25.36;53.73
34742;BME280;20968;42.696;23.360;2022-09-09T20:29:03;95201.81;;;25.30;53.98
34742;BME280;20968;42.696;23.360;2022-09-09T20:31:32;95211.78;;;25.31;54.38